sensor_id;sensor_type;location;lat;lon;timestamp;pressure;altitude;pressure_sealevel;temperature;humidity
80294;BME280;69594;43.516;1.498;2023-06-14T00:00:32;99232.25;;;19.26;76.54
80294;BME280;69594;43.516;1.498;2023-06-14T00:02:59;99231.56;;;19.30;76.58
80294;BME280;69594;43.516;1.498;2023-06-14T00:05:25;99229.59;;;19.26;76.33
80294;BME280;69594;43.516;1.498;2023-06-14T00:07:51;99228.31;;;19.28;76.54
80294;BME280;69594;43.516;1.498;2023-06-14T00:10:19;99219.50;;;19.28;76.52
80294;BME280;69594;43.516;1.498;2023-06-14T00:12:44;99219.75;;;19.26;76.22
80294;BME280;69594;43.516;1.498;2023-06-14T00:15:10;99214.66;;;19.25;76.61
80294;BME280;69594;43.516;1.498;2023-06-14T00:17:36;99216.72;;;19.23;76.71
80294;BME280;69594;43.516;1.498;2023-06-14T00:20:03;99209.69;;;19.28;76.49
80294;BME280;69594;43.516;1.498;2023-06-14T00:22:31;99217.91;;;19.27;76.86
80294;BME280;69594;43.516;1.498;2023-06-14T00:24:57;99212.34;;;19.28;76.65
80294;BME280;69594;43.516;1.498;2023-06-14T00:27:22;99217.31;;;19.25;76.79
80294;BME280;69594;43.516;1.498;2023-06-14T00:29:48;99215.25;;;19.27;76.78
80294;BME280;69594;43.516;1.498;2023-06-14T00:32:13;99213.03;;;19.24;77.07
80294;BME280;69594;43.516;1.498;2023-06-14T00:34:38;99212.00;;;19.25;77.07
80294;BME280;69594;43.516;1.498;2023-06-14T00:37:04;99207.28;;;19.27;76.82
80294;BME280;69594;43.516;1.498;2023-06-14T00:39:30;99211.41;;;19.23;77.34
80294;BME280;69594;43.516;1.498;2023-06-14T00:41:55;99202.63;;;19.22;77.58
80294;BME280;69594;43.516;1.498;2023-06-14T00:44:21;99202.19;;;19.25;77.11
80294;BME280;69594;43.516;1.498;2023-06-14T00:46:47;99190.72;;;19.25;77.21
80294;BME280;69594;43.516;1.498;2023-06-14T00:49:14;99202.91;;;19.32;76.95
80294;BME280;69594;43.516;1.498;2023-06-14T00:51:41;99198.03;;;19.29;77.03
80294;BME280;69594;43.516;1.498;2023-06-14T00:54:07;99192.94;;;19.28;77.26
80294;BME280;69594;43.516;1.498;2023-06-14T00:56:35;99194.56;;;19.29;77.30
80294;BME280;69594;43.516;1.498;2023-06-14T00:59:02;99195.16;;;19.31;77.39
80294;BME280;69594;43.516;1.498;2023-06-14T01:01:29;99187.84;;;19.26;77.42
80294;BME280;69594;43.516;1.498;2023-06-14T01:03:58;99194.00;;;19.27;77.68
80294;BME280;69594;43.516;1.498;2023-06-14T01:06:32;99194.41;;;19.24;77.73
80294;BME280;69594;43.516;1.498;2023-06-14T01:11:59;99207.28;;;19.08;79.10
80294;BME280;69594;43.516;1.498;2023-06-14T01:14:27;99209.88;;;19.15;78.45
80294;BME280;69594;43.516;1.498;2023-06-14T01:16:54;99213.34;;;19.16;78.81
80294;BME280;69594;43.516;1.498;2023-06-14T01:19:20;99210.53;;;19.10;79.02
80294;BME280;69594;43.516;1.498;2023-06-14T01:21:48;99198.88;;;19.12;79.13
80294;BME280;69594;43.516;1.498;2023-06-14T01:24:16;99190.44;;;19.15;79.28
80294;BME280;69594;43.516;1.498;2023-06-14T01:26:45;99179.34;;;19.18;79.34
80294;BME280;69594;43.516;1.498;2023-06-14T01:29:13;99191.41;;;19.20;79.33
80294;BME280;69594;43.516;1.498;2023-06-14T01:31:42;99196.34;;;19.17;79.47
80294;BME280;69594;43.516;1.498;2023-06-14T01:34:08;99201.69;;;19.17;79.56
80294;BME280;69594;43.516;1.498;2023-06-14T01:36:35;99194.94;;;19.14;79.58
80294;BME280;69594;43.516;1.498;2023-06-14T01:39:02;99200.03;;;19.16;79.61
80294;BME280;69594;43.516;1.498;2023-06-14T01:41:28;99199.38;;;19.20;79.29
80294;BME280;69594;43.516;1.498;2023-06-14T01:43:55;99210.97;;;19.26;79.41
80294;BME280;69594;43.516;1.498;2023-06-14T01:46:22;99201.28;;;19.31;79.11
80294;BME280;69594;43.516;1.498;2023-06-14T01:48:48;99201.03;;;19.33;79.37
80294;BME280;69594;43.516;1.498;2023-06-14T01:51:14;99197.97;;;19.36;79.33
80294;BME280;69594;43.516;1.498;2023-06-14T01:53:40;99206.50;;;19.38;79.23
80294;BME280;69594;43.516;1.498;2023-06-14T01:56:06;99204.22;;;19.41;79.18
80294;BME280;69594;43.516;1.498;2023-06-14T01:58:31;99199.94;;;19.40;79.19
80294;BME280;69594;43.516;1.498;2023-06-14T02:00:58;99205.94;;;19.36;79.47
80294;BME280;69594;43.516;1.498;2023-06-14T02:03:26;99211.94;;;19.31;78.98
80294;BME280;69594;43.516;1.498;2023-06-14T02:05:51;99200.84;;;19.34;79.21
80294;BME280;69594;43.516;1.498;2023-06-14T02:08:17;99194.13;;;19.32;79.36
80294;BME280;69594;43.516;1.498;2023-06-14T02:10:43;99206.16;;;19.34;79.22
80294;BME280;69594;43.516;1.498;2023-06-14T02:13:08;99203.69;;;19.33;79.10
80294;BME280;69594;43.516;1.498;2023-06-14T02:15:34;99204.66;;;19.38;78.98
80294;BME280;69594;43.516;1.498;2023-06-14T02:18:09;99199.81;;;19.35;79.04
80294;BME280;69594;43.516;1.498;2023-06-14T02:20:35;99204.31;;;19.35;79.23
80294;BME280;69594;43.516;1.498;2023-06-14T02:23:02;99216.13;;;19.39;79.16
80294;BME280;69594;43.516;1.498;2023-06-14T02:25:27;99208.94;;;19.39;79.29
80294;BME280;69594;43.516;1.498;2023-06-14T02:27:54;99208.72;;;19.41;78.90
80294;BME280;69594;43.516;1.498;2023-06-14T02:30:20;99207.91;;;19.40;79.16
80294;BME280;69594;43.516;1.498;2023-06-14T02:32:46;99206.88;;;19.41;79.28
80294;BME280;69594;43.516;1.498;2023-06-14T02:35:13;99201.03;;;19.33;79.81
80294;BME280;69594;43.516;1.498;2023-06-14T02:37:40;99205.78;;;19.31;79.82
80294;BME280;69594;43.516;1.498;2023-06-14T02:40:06;99197.06;;;19.24;79.93
80294;BME280;69594;43.516;1.498;2023-06-14T02:42:32;99188.94;;;19.19;80.14
80294;BME280;69594;43.516;1.498;2023-06-14T02:44:57;99196.34;;;19.17;80.39
80294;BME280;69594;43.516;1.498;2023-06-14T02:47:22;99193.56;;;19.12;80.37
80294;BME280;69594;43.516;1.498;2023-06-14T02:49:49;99192.94;;;19.09;80.30
80294;BME280;69594;43.516;1.498;2023-06-14T02:52:15;99188.09;;;19.06;80.60
80294;BME280;69594;43.516;1.498;2023-06-14T02:54:40;99187.34;;;18.99;81.18
80294;BME280;69594;43.516;1.498;2023-06-14T02:57:07;99186.97;;;18.96;81.23
80294;BME280;69594;43.516;1.498;2023-06-14T02:59:34;99194.34;;;18.94;81.21
80294;BME280;69594;43.516;1.498;2023-06-14T03:02:00;99206.22;;;18.91;81.33
80294;BME280;69594;43.516;1.498;2023-06-14T03:04:25;99204.38;;;18.92;81.11
80294;BME280;69594;43.516;1.498;2023-06-14T03:06:52;99203.72;;;18.96;81.03
80294;BME280;69594;43.516;1.498;2023-06-14T03:09:19;99203.28;;;18.99;80.83
80294;BME280;69594;43.516;1.498;2023-06-14T03:11:44;99204.81;;;19.07;80.63
80294;BME280;69594;43.516;1.498;2023-06-14T03:14:10;99203.06;;;19.01;81.05
80294;BME280;69594;43.516;1.498;2023-06-14T03:16:36;99203.81;;;19.08;80.91
80294;BME280;69594;43.516;1.498;2023-06-14T03:19:02;99207.28;;;19.08;80.74
80294;BME280;69594;43.516;1.498;2023-06-14T03:21:28;99210.16;;;19.07;80.90
80294;BME280;69594;43.516;1.498;2023-06-14T03:23:53;99210.97;;;19.07;80.93
80294;BME280;69594;43.516;1.498;2023-06-14T03:26:19;99205.66;;;19.07;80.79
80294;BME280;69594;43.516;1.498;2023-06-14T03:28:45;99208.31;;;19.07;80.83
80294;BME280;69594;43.516;1.498;2023-06-14T03:31:14;99210.97;;;19.07;81.02
80294;BME280;69594;43.516;1.498;2023-06-14T03:33:40;99213.63;;;19.07;80.84
80294;BME280;69594;43.516;1.498;2023-06-14T03:36:06;99209.78;;;19.03;81.00
80294;BME280;69594;43.516;1.498;2023-06-14T03:38:32;99211.41;;;19.04;80.84
80294;BME280;69594;43.516;1.498;2023-06-14T03:40:57;99210.25;;;19.00;81.12
80294;BME280;69594;43.516;1.498;2023-06-14T03:43:23;99210.09;;;18.95;80.90
80294;BME280;69594;43.516;1.498;2023-06-14T03:45:48;99225.16;;;19.01;80.82
80294;BME280;69594;43.516;1.498;2023-06-14T03:48:14;99222.94;;;18.98;80.97
80294;BME280;69594;43.516;1.498;2023-06-14T03:50:39;99224.19;;;18.96;81.00
80294;BME280;69594;43.516;1.498;2023-06-14T03:53:06;99224.19;;;18.96;81.03
80294;BME280;69594;43.516;1.498;2023-06-14T03:55:31;99234.38;;;18.99;80.85
80294;BME280;69594;43.516;1.498;2023-06-14T03:57:58;99226.41;;;18.99;80.69
80294;BME280;69594;43.516;1.498;2023-06-14T04:00:26;99234.38;;;18.99;80.72
80294;BME280;69594;43.516;1.498;2023-06-14T04:02:55;99231.94;;;18.97;80.52
80294;BME280;69594;43.516;1.498;2023-06-14T04:05:20;99245.00;;;18.99;80.98
80294;BME280;69594;43.516;1.498;2023-06-14T04:07:46;99247.28;;;18.95;80.84
80294;BME280;69594;43.516;1.498;2023-06-14T04:10:15;99251.94;;;19.00;80.60
80294;BME280;69594;43.516;1.498;2023-06-14T04:12:41;99247.44;;;19.00;80.67
80294;BME280;69594;43.516;1.498;2023-06-14T04:15:06;99252.91;;;19.05;80.22
80294;BME280;69594;43.516;1.498;2023-06-14T04:17:33;99253.50;;;19.07;80.22
80294;BME280;69594;43.516;1.498;2023-06-14T04:20:00;99252.69;;;19.07;79.99
80294;BME280;69594;43.516;1.498;2023-06-14T04:22:26;99248.41;;;19.06;80.14
80294;BME280;69594;43.516;1.498;2023-06-14T04:24:54;99254.59;;;19.00;80.42
80294;BME280;69594;43.516;1.498;2023-06-14T04:27:23;99256.81;;;19.03;80.01
80294;BME280;69594;43.516;1.498;2023-06-14T04:29:54;99269.91;;;19.04;80.04
80294;BME280;69594;43.516;1.498;2023-06-14T04:32:25;99266.63;;;19.02;80.33
80294;BME280;69594;43.516;1.498;2023-06-14T04:34:54;99265.03;;;19.01;80.32
80294;BME280;69594;43.516;1.498;2023-06-14T04:37:23;99266.56;;;19.09;80.18
80294;BME280;69594;43.516;1.498;2023-06-14T04:39:49;99268.19;;;19.10;80.23
80294;BME280;69594;43.516;1.498;2023-06-14T04:42:15;99268.56;;;19.14;79.99
80294;BME280;69594;43.516;1.498;2023-06-14T04:44:42;99275.88;;;19.18;79.94
80294;BME280;69594;43.516;1.498;2023-06-14T04:47:12;99282.00;;;19.19;80.22
80294;BME280;69594;43.516;1.498;2023-06-14T04:49:38;99276.84;;;19.24;79.73
80294;BME280;69594;43.516;1.498;2023-06-14T04:52:05;99264.16;;;19.26;79.62
80294;BME280;69594;43.516;1.498;2023-06-14T04:54:31;99267.03;;;19.24;79.77
80294;BME280;69594;43.516;1.498;2023-06-14T04:57:04;99268.88;;;19.24;80.08
80294;BME280;69594;43.516;1.498;2023-06-14T04:59:30;99266.44;;;19.22;80.17
80294;BME280;69594;43.516;1.498;2023-06-14T05:01:59;99281.88;;;19.32;79.46
80294;BME280;69594;43.516;1.498;2023-06-14T05:04:25;99271.09;;;19.27;79.75
80294;BME280;69594;43.516;1.498;2023-06-14T05:06:53;99277.38;;;19.32;79.81
80294;BME280;69594;43.516;1.498;2023-06-14T05:09:20;99282.47;;;19.34;79.73
80294;BME280;69594;43.516;1.498;2023-06-14T05:11:46;99286.75;;;19.35;79.49
80294;BME280;69594;43.516;1.498;2023-06-14T05:14:13;99287.78;;;19.34;79.95
80294;BME280;69594;43.516;1.498;2023-06-14T05:16:39;99288.38;;;19.36;79.68
80294;BME280;69594;43.516;1.498;2023-06-14T05:19:05;99291.19;;;19.41;79.55
80294;BME280;69594;43.516;1.498;2023-06-14T05:21:31;99285.00;;;19.47;79.85
80294;BME280;69594;43.516;1.498;2023-06-14T05:23:59;99291.97;;;19.48;79.35
80294;BME280;69594;43.516;1.498;2023-06-14T05:26:25;99291.88;;;19.55;79.37
80294;BME280;69594;43.516;1.498;2023-06-14T05:28:57;99282.78;;;19.62;79.03
80294;BME280;69594;43.516;1.498;2023-06-14T05:31:25;99294.38;;;19.68;79.12
80294;BME280;69594;43.516;1.498;2023-06-14T05:33:51;99290.38;;;19.77;78.48
80294;BME280;69594;43.516;1.498;2023-06-14T05:36:17;99308.31;;;19.81;78.60
80294;BME280;69594;43.516;1.498;2023-06-14T05:38:43;99303.75;;;19.88;78.33
80294;BME280;69594;43.516;1.498;2023-06-14T05:41:08;99309.50;;;19.85;78.36
80294;BME280;69594;43.516;1.498;2023-06-14T05:43:34;99312.22;;;19.97;77.82
80294;BME280;69594;43.516;1.498;2023-06-14T05:45:59;99315.03;;;20.02;77.55
80294;BME280;69594;43.516;1.498;2023-06-14T05:48:25;99314.47;;;20.12;77.47
80294;BME280;69594;43.516;1.498;2023-06-14T05:50:50;99330.84;;;20.15;77.37
80294;BME280;69594;43.516;1.498;2023-06-14T05:53:16;99322.28;;;20.25;76.97
80294;BME280;69594;43.516;1.498;2023-06-14T05:55:42;99326.13;;;20.29;76.91
80294;BME280;69594;43.516;1.498;2023-06-14T05:58:07;99325.69;;;20.32;76.81
80294;BME280;69594;43.516;1.498;2023-06-14T06:00:33;99327.56;;;20.43;76.53
80294;BME280;69594;43.516;1.498;2023-06-14T06:02:58;99332.00;;;20.49;76.44
80294;BME280;69594;43.516;1.498;2023-06-14T06:05:24;99331.66;;;20.46;76.20
80294;BME280;69594;43.516;1.498;2023-06-14T06:07:50;99339.78;;;20.51;76.25
80294;BME280;69594;43.516;1.498;2023-06-14T06:10:15;99344.97;;;20.57;76.15
80294;BME280;69594;43.516;1.498;2023-06-14T06:12:42;99348.03;;;20.61;76.15
80294;BME280;69594;43.516;1.498;2023-06-14T06:15:08;99353.00;;;20.69;75.81
80294;BME280;69594;43.516;1.498;2023-06-14T06:17:37;99353.72;;;20.76;75.55
80294;BME280;69594;43.516;1.498;2023-06-14T06:20:06;99350.72;;;20.72;75.33
80294;BME280;69594;43.516;1.498;2023-06-14T06:22:34;99352.19;;;20.68;75.52
80294;BME280;69594;43.516;1.498;2023-06-14T06:25:00;99359.03;;;20.64;75.77
80294;BME280;69594;43.516;1.498;2023-06-14T06:27:25;99352.78;;;20.70;75.64
80294;BME280;69594;43.516;1.498;2023-06-14T06:29:51;99352.44;;;20.78;75.20
80294;BME280;69594;43.516;1.498;2023-06-14T06:32:17;99356.63;;;20.74;75.55
80294;BME280;69594;43.516;1.498;2023-06-14T06:34:43;99366.28;;;20.87;75.35
80294;BME280;69594;43.516;1.498;2023-06-14T06:37:10;99366.63;;;20.91;75.14
80294;BME280;69594;43.516;1.498;2023-06-14T06:39:35;99365.09;;;20.95;74.69
80294;BME280;69594;43.516;1.498;2023-06-14T06:42:01;99369.97;;;20.86;74.81
80294;BME280;69594;43.516;1.498;2023-06-14T06:44:26;99379.00;;;20.85;75.04
80294;BME280;69594;43.516;1.498;2023-06-14T06:46:52;99377.28;;;20.91;75.21
80294;BME280;69594;43.516;1.498;2023-06-14T06:49:17;99380.19;;;21.01;74.64
80294;BME280;69594;43.516;1.498;2023-06-14T06:51:43;99388.44;;;21.11;74.40
80294;BME280;69594;43.516;1.498;2023-06-14T06:54:10;99388.00;;;21.14;74.44
80294;BME280;69594;43.516;1.498;2023-06-14T06:56:35;99394.25;;;21.19;74.40
80294;BME280;69594;43.516;1.498;2023-06-14T06:59:02;99388.69;;;21.21;74.03
80294;BME280;69594;43.516;1.498;2023-06-14T07:04:04;99409.00;;;21.22;74.21
80294;BME280;69594;43.516;1.498;2023-06-14T07:06:30;99407.72;;;21.25;74.02
80294;BME280;69594;43.516;1.498;2023-06-14T07:08:55;99409.72;;;21.29;74.21
80294;BME280;69594;43.516;1.498;2023-06-14T07:11:26;99413.19;;;21.41;73.49
80294;BME280;69594;43.516;1.498;2023-06-14T07:13:52;99407.72;;;21.36;73.43
80294;BME280;69594;43.516;1.498;2023-06-14T07:16:17;99416.53;;;21.25;73.87
80294;BME280;69594;43.516;1.498;2023-06-14T07:18:43;99413.31;;;21.23;73.92
80294;BME280;69594;43.516;1.498;2023-06-14T07:21:09;99416.88;;;21.17;74.18
80294;BME280;69594;43.516;1.498;2023-06-14T07:23:34;99421.41;;;21.16;74.71
80294;BME280;69594;43.516;1.498;2023-06-14T07:26:00;99426.25;;;21.08;74.53
80294;BME280;69594;43.516;1.498;2023-06-14T07:28:26;99422.16;;;21.05;74.63
80294;BME280;69594;43.516;1.498;2023-06-14T07:30:51;99427.16;;;21.02;74.80
80294;BME280;69594;43.516;1.498;2023-06-14T07:33:17;99433.88;;;21.04;74.91
80294;BME280;69594;43.516;1.498;2023-06-14T07:35:42;99435.50;;;21.05;74.88
80294;BME280;69594;43.516;1.498;2023-06-14T07:38:08;99436.19;;;21.01;75.30
80294;BME280;69594;43.516;1.498;2023-06-14T07:40:33;99445.69;;;20.97;75.18
80294;BME280;69594;43.516;1.498;2023-06-14T07:42:59;99447.63;;;20.90;75.52
80294;BME280;69594;43.516;1.498;2023-06-14T07:45:25;99441.25;;;20.91;75.69
80294;BME280;69594;43.516;1.498;2023-06-14T07:47:50;99444.66;;;20.98;75.43
80294;BME280;69594;43.516;1.498;2023-06-14T07:50:17;99442.00;;;21.09;74.86
80294;BME280;69594;43.516;1.498;2023-06-14T07:52:43;99450.47;;;21.06;75.01
80294;BME280;69594;43.516;1.498;2023-06-14T07:55:13;99446.84;;;21.01;75.08
80294;BME280;69594;43.516;1.498;2023-06-14T07:57:40;99453.00;;;21.01;75.49
80294;BME280;69594;43.516;1.498;2023-06-14T08:00:06;99449.75;;;20.99;75.56
80294;BME280;69594;43.516;1.498;2023-06-14T08:02:32;99458.00;;;20.98;75.52
80294;BME280;69594;43.516;1.498;2023-06-14T08:04:57;99453.22;;;21.00;75.38
80294;BME280;69594;43.516;1.498;2023-06-14T08:07:23;99455.88;;;21.00;75.36
80294;BME280;69594;43.516;1.498;2023-06-14T08:09:49;99463.91;;;21.11;74.99
80294;BME280;69594;43.516;1.498;2023-06-14T08:12:15;99459.78;;;21.15;75.09
80294;BME280;69594;43.516;1.498;2023-06-14T08:14:42;99467.22;;;21.25;74.59
80294;BME280;69594;43.516;1.498;2023-06-14T08:17:07;99457.97;;;21.28;74.62
80294;BME280;69594;43.516;1.498;2023-06-14T08:19:33;99462.72;;;21.49;74.19
80294;BME280;69594;43.516;1.498;2023-06-14T08:21:59;99466.22;;;21.96;72.33
80294;BME280;69594;43.516;1.498;2023-06-14T08:24:28;99474.97;;;22.31;71.41
80294;BME280;69594;43.516;1.498;2023-06-14T08:26:54;99468.81;;;22.71;70.52
80294;BME280;69594;43.516;1.498;2023-06-14T08:29:25;99466.13;;;22.99;69.19
80294;BME280;69594;43.516;1.498;2023-06-14T08:31:54;99468.00;;;23.32;68.66
80294;BME280;69594;43.516;1.498;2023-06-14T08:34:20;99475.91;;;23.55;68.42
80294;BME280;69594;43.516;1.498;2023-06-14T08:36:45;99476.34;;;23.86;67.43
80294;BME280;69594;43.516;1.498;2023-06-14T08:39:13;99474.69;;;24.01;67.10
80294;BME280;69594;43.516;1.498;2023-06-14T08:41:39;99484.16;;;24.26;66.63
80294;BME280;69594;43.516;1.498;2023-06-14T08:44:05;99485.03;;;24.31;66.30
80294;BME280;69594;43.516;1.498;2023-06-14T08:46:33;99486.47;;;24.39;66.25
80294;BME280;69594;43.516;1.498;2023-06-14T08:49:01;99485.69;;;25.83;62.73
80294;BME280;69594;43.516;1.498;2023-06-14T08:51:30;99486.50;;;25.51;62.54
80294;BME280;69594;43.516;1.498;2023-06-14T08:53:59;99491.50;;;25.37;63.75
80294;BME280;69594;43.516;1.498;2023-06-14T08:56:27;99498.13;;;25.57;63.14
80294;BME280;69594;43.516;1.498;2023-06-14T08:58:55;99499.03;;;26.14;61.83
80294;BME280;69594;43.516;1.498;2023-06-14T09:01:22;99494.88;;;25.92;62.07
80294;BME280;69594;43.516;1.498;2023-06-14T09:03:49;99498.56;;;26.28;61.45
80294;BME280;69594;43.516;1.498;2023-06-14T09:06:15;99494.00;;;27.36;58.10
80294;BME280;69594;43.516;1.498;2023-06-14T09:08:46;99503.69;;;27.37;57.34
80294;BME280;69594;43.516;1.498;2023-06-14T09:11:13;99500.50;;;27.70;57.89
80294;BME280;69594;43.516;1.498;2023-06-14T09:13:40;99501.59;;;29.03;54.94
80294;BME280;69594;43.516;1.498;2023-06-14T09:16:06;99500.13;;;31.16;49.94
80294;BME280;69594;43.516;1.498;2023-06-14T09:21:01;99510.88;;;30.83;50.96
80294;BME280;69594;43.516;1.498;2023-06-14T09:23:26;99523.22;;;30.05;52.98
80294;BME280;69594;43.516;1.498;2023-06-14T09:25:54;99520.00;;;29.40;53.22
80294;BME280;69594;43.516;1.498;2023-06-14T09:28:20;99523.66;;;28.66;54.73
80294;BME280;69594;43.516;1.498;2023-06-14T09:30:51;99517.94;;;28.23;56.21
80294;BME280;69594;43.516;1.498;2023-06-14T09:33:17;99508.88;;;30.28;51.43
80294;BME280;69594;43.516;1.498;2023-06-14T09:35:45;99520.66;;;29.22;53.00
80294;BME280;69594;43.516;1.498;2023-06-14T09:38:11;99526.72;;;28.49;55.62
80294;BME280;69594;43.516;1.498;2023-06-14T09:40:38;99530.94;;;28.65;54.75
80294;BME280;69594;43.516;1.498;2023-06-14T09:43:06;99532.31;;;28.63;54.70
80294;BME280;69594;43.516;1.498;2023-06-14T09:45:33;99529.50;;;28.34;54.65
80294;BME280;69594;43.516;1.498;2023-06-14T09:47:59;99522.22;;;28.09;55.45
80294;BME280;69594;43.516;1.498;2023-06-14T09:50:25;99537.91;;;27.97;54.81
80294;BME280;69594;43.516;1.498;2023-06-14T09:52:54;99536.72;;;28.49;53.22
80294;BME280;69594;43.516;1.498;2023-06-14T09:55:23;99534.06;;;28.39;54.78
80294;BME280;69594;43.516;1.498;2023-06-14T09:57:52;99534.53;;;28.46;54.55
80294;BME280;69594;43.516;1.498;2023-06-14T10:00:20;99536.22;;;28.31;54.40
80294;BME280;69594;43.516;1.498;2023-06-14T10:02:50;99535.19;;;28.07;54.23
80294;BME280;69594;43.516;1.498;2023-06-14T10:05:19;99544.25;;;28.52;54.45
80294;BME280;69594;43.516;1.498;2023-06-14T10:07:55;99535.50;;;28.85;52.45
80294;BME280;69594;43.516;1.498;2023-06-14T10:10:21;99533.06;;;29.23;52.40
80294;BME280;69594;43.516;1.498;2023-06-14T10:12:47;99534.81;;;28.54;54.11
80294;BME280;69594;43.516;1.498;2023-06-14T10:15:32;99540.31;;;27.94;54.15
80294;BME280;69594;43.516;1.498;2023-06-14T10:18:09;99534.94;;;27.88;54.45
80294;BME280;69594;43.516;1.498;2023-06-14T10:23:21;99542.66;;;28.41;53.67
80294;BME280;69594;43.516;1.498;2023-06-14T10:25:50;99534.59;;;28.36;52.58
80294;BME280;69594;43.516;1.498;2023-06-14T10:28:18;99537.91;;;28.82;52.85
80294;BME280;69594;43.516;1.498;2023-06-14T10:31:09;99519.53;;;29.28;50.61
80294;BME280;69594;43.516;1.498;2023-06-14T10:33:49;99532.97;;;29.43;50.82
80294;BME280;69594;43.516;1.498;2023-06-14T10:39:18;99533.06;;;29.23;50.54
80294;BME280;69594;43.516;1.498;2023-06-14T10:41:52;99526.00;;;28.88;51.58
80294;BME280;69594;43.516;1.498;2023-06-14T10:46:52;99528.19;;;29.25;52.03
80294;BME280;69594;43.516;1.498;2023-06-14T10:49:37;99525.63;;;29.04;51.29
80294;BME280;69594;43.516;1.498;2023-06-14T10:52:17;99516.53;;;28.95;52.70
80294;BME280;69594;43.516;1.498;2023-06-14T10:54:59;99509.00;;;29.31;51.54
80294;BME280;69594;43.516;1.498;2023-06-14T10:57:28;99524.38;;;29.65;51.91
80294;BME280;69594;43.516;1.498;2023-06-14T10:59:53;99521.50;;;29.56;51.84
80294;BME280;69594;43.516;1.498;2023-06-14T11:02:42;99525.38;;;29.45;50.51
80294;BME280;69594;43.516;1.498;2023-06-14T11:05:14;99525.84;;;29.52;50.61
80294;BME280;69594;43.516;1.498;2023-06-14T11:10:41;99521.59;;;30.04;50.14
80294;BME280;69594;43.516;1.498;2023-06-14T11:13:08;99517.34;;;30.21;49.97
80294;BME280;69594;43.516;1.498;2023-06-14T11:15:44;99518.72;;;30.42;48.17
80294;BME280;69594;43.516;1.498;2023-06-14T11:18:12;99523.44;;;30.32;49.32
80294;BME280;69594;43.516;1.498;2023-06-14T11:20:39;99517.28;;;30.03;49.21
80294;BME280;69594;43.516;1.498;2023-06-14T11:23:05;99523.97;;;29.81;50.05
80294;BME280;69594;43.516;1.498;2023-06-14T11:25:31;99527.19;;;29.54;50.62
80294;BME280;69594;43.516;1.498;2023-06-14T11:27:58;99529.66;;;29.51;51.04
80294;BME280;69594;43.516;1.498;2023-06-14T11:30:25;99529.78;;;29.65;50.96
80294;BME280;69594;43.516;1.498;2023-06-14T11:32:53;99522.41;;;29.46;50.81
80294;BME280;69594;43.516;1.498;2023-06-14T11:35:21;99526.94;;;29.51;49.59
80294;BME280;69594;43.516;1.498;2023-06-14T11:37:53;99520.50;;;29.76;49.08
80294;BME280;69594;43.516;1.498;2023-06-14T11:40:19;99522.16;;;29.43;50.68
80294;BME280;69594;43.516;1.498;2023-06-14T11:42:44;99521.78;;;29.83;50.13
80294;BME280;69594;43.516;1.498;2023-06-14T11:45:12;99535.94;;;30.28;48.73
80294;BME280;69594;43.516;1.498;2023-06-14T11:47:38;99530.41;;;29.85;49.55
80294;BME280;69594;43.516;1.498;2023-06-14T11:50:06;99528.34;;;29.77;50.42
80294;BME280;69594;43.516;1.498;2023-06-14T11:52:32;99522.00;;;30.16;50.03
80294;BME280;69594;43.516;1.498;2023-06-14T11:54:58;99516.88;;;30.62;49.16
80294;BME280;69594;43.516;1.498;2023-06-14T11:57:24;99509.34;;;30.59;48.86
80294;BME280;69594;43.516;1.498;2023-06-14T11:59:51;99516.84;;;29.90;50.15
80294;BME280;69594;43.516;1.498;2023-06-14T12:02:18;99514.84;;;29.04;51.71
80294;BME280;69594;43.516;1.498;2023-06-14T12:04:46;99517.19;;;28.67;52.43
80294;BME280;69594;43.516;1.498;2023-06-14T12:07:15;99513.53;;;28.43;53.08
80294;BME280;69594;43.516;1.498;2023-06-14T12:12:28;99510.09;;;28.86;51.83
80294;BME280;69594;43.516;1.498;2023-06-14T12:14:56;99510.75;;;29.07;51.81
80294;BME280;69594;43.516;1.498;2023-06-14T12:17:22;99529.13;;;29.10;51.65
80294;BME280;69594;43.516;1.498;2023-06-14T12:19:49;99519.09;;;29.15;51.15
80294;BME280;69594;43.516;1.498;2023-06-14T12:22:16;99524.47;;;29.21;51.10
80294;BME280;69594;43.516;1.498;2023-06-14T12:24:45;99531.84;;;29.44;50.62
80294;BME280;69594;43.516;1.498;2023-06-14T12:27:14;99517.97;;;29.55;49.65
80294;BME280;69594;43.516;1.498;2023-06-14T12:29:47;99518.88;;;29.46;49.75
80294;BME280;69594;43.516;1.498;2023-06-14T12:32:23;99516.81;;;29.33;50.73
80294;BME280;69594;43.516;1.498;2023-06-14T12:34:49;99523.41;;;29.17;50.62
80294;BME280;69594;43.516;1.498;2023-06-14T12:37:15;99522.72;;;29.01;51.03
80294;BME280;69594;43.516;1.498;2023-06-14T12:39:41;99518.47;;;28.85;50.77
80294;BME280;69594;43.516;1.498;2023-06-14T12:42:07;99522.63;;;28.57;51.63
80294;BME280;69594;43.516;1.498;2023-06-14T12:44:32;99513.50;;;28.48;51.36
80294;BME280;69594;43.516;1.498;2023-06-14T12:47:00;99506.59;;;28.86;50.81
80294;BME280;69594;43.516;1.498;2023-06-14T12:49:26;99517.41;;;29.25;50.33
80294;BME280;69594;43.516;1.498;2023-06-14T12:51:53;99512.13;;;29.43;49.20
80294;BME280;69594;43.516;1.498;2023-06-14T12:56:54;99510.84;;;29.98;46.98
80294;BME280;69594;43.516;1.498;2023-06-14T12:59:20;99514.06;;;30.01;47.53
80294;BME280;69594;43.516;1.498;2023-06-14T13:04:20;99512.56;;;29.89;47.73
80294;BME280;69594;43.516;1.498;2023-06-14T13:06:46;99509.59;;;29.86;47.62
80294;BME280;69594;43.516;1.498;2023-06-14T13:09:12;99518.06;;;29.74;48.04
80294;BME280;69594;43.516;1.498;2023-06-14T13:11:38;99524.78;;;29.53;48.61
80294;BME280;69594;43.516;1.498;2023-06-14T13:14:03;99505.09;;;29.47;48.12
80294;BME280;69594;43.516;1.498;2023-06-14T13:16:30;99509.72;;;29.42;47.92
80294;BME280;69594;43.516;1.498;2023-06-14T13:18:56;99517.50;;;29.48;48.30
80294;BME280;69594;43.516;1.498;2023-06-14T13:21:21;99520.75;;;29.11;48.26
80294;BME280;69594;43.516;1.498;2023-06-14T13:23:46;99523.78;;;29.39;48.74
80294;BME280;69594;43.516;1.498;2023-06-14T13:26:12;99518.53;;;29.58;48.54